Time;durP1;ratioP1;P1;durP2;ratioP2;P2;SDS_P1;SDS_P2;PMS_P1;PMS_P2;Temp;Humidity;BMP_temperature;BMP_pressure;BME280_temperature;BME280_humidity;BME280_pressure;Samples;Min_cycle;Max_cycle;Signal;HPM_P1;HPM_P2
2022/10/11 00:01:58;;;;;;;3.57;3.20;;;13.80;97.30;;;;;;5121248;28;20471;-79
2022/10/11 00:04:24;;;;;;;7.77;3.30;;;13.80;97.30;;;;;;5082119;28;20166;-79
2022/10/11 00:06:49;;;;;;;3.37;2.30;;;13.70;97.30;;;;;;5095252;28;20201;-80
2022/10/11 00:09:15;;;;;;;6.30;3.00;;;13.70;97.30;;;;;;5094739;28;20183;-82
2022/10/11 00:11:41;;;;;;;10.47;2.97;;;13.70;97.30;;;;;;5086247;28;20197;-82
2022/10/11 00:14:07;;;;;;;3.50;3.30;;;13.70;97.30;;;;;;5089361;28;20210;-79
2022/10/11 00:16:33;;;;;;;3.93;2.60;;;13.70;97.30;;;;;;5086766;28;20423;-82
2022/10/11 00:18:59;;;;;;;2.47;2.27;;;13.60;97.30;;;;;;5081658;28;20949;-83
2022/10/11 00:21:25;;;;;;;3.33;2.70;;;13.60;97.30;;;;;;5091123;28;20475;-82
2022/10/11 00:23:51;;;;;;;6.80;4.50;;;13.60;97.30;;;;;;5098535;28;20231;-85
2022/10/11 00:26:17;;;;;;;2.93;2.50;;;13.50;97.30;;;;;;5082891;28;21203;-83
2022/10/11 00:28:42;;;;;;;4.60;2.80;;;13.50;97.30;;;;;;5090902;28;20182;-85
2022/10/11 00:31:10;;;;;;;3.60;3.40;;;13.50;97.30;;;;;;5079942;28;20196;-80
2022/10/11 00:33:36;;;;;;;4.37;2.73;;;13.50;97.30;;;;;;5085937;28;20164;-80
2022/10/11 00:36:01;;;;;;;3.67;2.40;;;13.50;97.30;;;;;;5084282;28;20443;-83
2022/10/11 00:38:27;;;;;;;2.83;2.43;;;13.50;97.30;;;;;;5086123;28;20448;-82
2022/10/11 00:40:53;;;;;;;3.03;1.60;;;13.40;97.30;;;;;;5074961;28;20206;-79
2022/10/11 00:43:21;;;;;;;5.50;2.63;;;13.40;97.30;;;;;;5093774;28;20235;-82
2022/10/11 00:45:56;;;;;;;2.67;2.13;;;13.40;97.30;;;;;;5096091;28;20285;-81
2022/10/11 00:48:52;;;;;;;3.17;2.43;;;13.30;97.30;;;;;;5094881;28;20419;-82
2022/10/11 00:51:32;;;;;;;23.03;2.80;;;13.30;97.30;;;;;;5085992;28;20484;-82
2022/10/11 00:53:59;;;;;;;1.23;1.13;;;13.30;97.30;;;;;;5086852;28;20826;-81
2022/10/11 00:56:34;;;;;;;1.70;1.33;;;13.20;97.30;;;;;;5074206;28;20467;-81
2022/10/11 00:59:04;;;;;;;4.00;1.83;;;13.10;97.30;;;;;;5077389;28;20987;-83
2022/10/11 01:01:30;;;;;;;3.03;1.60;;;13.00;97.30;;;;;;5093537;28;20449;-83
2022/10/11 01:03:56;;;;;;;2.23;1.37;;;12.90;97.30;;;;;;5078236;28;20935;-83
2022/10/11 01:06:22;;;;;;;1.87;1.70;;;12.80;97.30;;;;;;5083277;28;20293;-83
2022/10/11 01:08:50;;;;;;;2.17;1.70;;;12.70;97.30;;;;;;5091449;28;20467;-83
2022/10/11 01:11:20;;;;;;;1.50;1.40;;;12.70;97.30;;;;;;5082327;28;20463;-79
2022/10/11 01:14:13;;;;;;;1.83;1.83;;;12.60;97.30;;;;;;5082740;28;20413;-84
2022/10/11 01:16:52;;;;;;;1.87;1.83;;;12.50;97.30;;;;;;5114689;28;20472;-84
2022/10/11 01:19:41;;;;;;;10.03;1.40;;;12.40;97.30;;;;;;5075813;28;20837;-81
2022/10/11 01:22:13;;;;;;;1.40;1.30;;;12.40;97.30;;;;;;5104804;28;20479;-82
2022/10/11 01:25:05;;;;;;;1.23;1.13;;;12.30;97.30;;;;;;5083460;28;20417;-82
2022/10/11 01:28:09;;;;;;;3.10;2.90;;;12.20;97.30;;;;;;5080284;28;20954;-82
2022/10/11 01:30:37;;;;;;;1.27;1.20;;;12.20;97.30;;;;;;5069951;28;20444;-80
2022/10/11 01:33:23;;;;;;;1.30;1.23;;;12.10;97.30;;;;;;5081577;28;20414;-82
2022/10/11 01:36:17;;;;;;;6.27;3.27;;;12.10;97.30;;;;;;5114250;28;20420;-79
2022/10/11 01:38:52;;;;;;;2.10;1.43;;;12.00;97.30;;;;;;5074611;28;20421;-82
2022/10/11 01:41:24;;;;;;;9.83;1.83;;;12.00;97.30;;;;;;5087035;28;20489;-81
2022/10/11 01:43:54;;;;;;;1.53;1.43;;;12.00;97.30;;;;;;5079095;28;20434;-82
2022/10/11 01:46:20;;;;;;;1.40;1.20;;;11.90;97.30;;;;;;5102309;28;20865;-82
2022/10/11 01:48:50;;;;;;;1.40;1.30;;;11.90;97.30;;;;;;5105432;28;20420;-82
2022/10/11 01:51:20;;;;;;;1.20;1.10;;;11.90;97.30;;;;;;5105946;28;20845;-83
2022/10/11 01:53:58;;;;;;;1.63;1.37;;;11.80;97.30;;;;;;5087695;28;20473;-82
2022/10/11 01:56:27;;;;;;;1.30;1.20;;;11.80;97.30;;;;;;5073801;28;20432;-79
2022/10/11 01:59:32;;;;;;;2.37;2.17;;;11.70;97.30;;;;;;5078715;28;20444;-80
2022/10/11 02:02:31;;;;;;;1.23;1.13;;;11.70;97.30;;;;;;5103672;28;20538;-82
2022/10/11 02:05:16;;;;;;;5.17;1.93;;;11.60;97.30;;;;;;5075142;28;20468;-79
2022/10/11 02:07:45;;;;;;;4.83;1.13;;;11.50;97.30;;;;;;5082110;28;20419;-81
2022/10/11 02:10:29;;;;;;;1.20;1.10;;;11.50;97.30;;;;;;5080376;28;20425;-80
2022/10/11 02:13:09;;;;;;;1.70;1.43;;;11.40;97.30;;;;;;5094253;28;20988;-82
2022/10/11 02:15:38;;;;;;;1.83;1.20;;;11.40;97.30;;;;;;5101712;28;20417;-82
2022/10/11 02:18:08;;;;;;;1.20;1.10;;;11.40;97.30;;;;;;5091566;28;20456;-82
2022/10/11 02:20:36;;;;;;;5.90;1.60;;;11.30;97.30;;;;;;5104132;28;20444;-81
2022/10/11 02:23:14;;;;;;;1.93;1.83;;;11.30;97.30;;;;;;5077119;28;20420;-82
2022/10/11 02:25:41;;;;;;;5.40;1.70;;;11.30;97.30;;;;;;5091322;28;20497;-78
2022/10/11 02:28:12;;;;;;;3.33;2.30;;;11.20;97.30;;;;;;5089240;28;20477;-79
2022/10/11 02:30:40;;;;;;;1.00;0.90;;;11.20;97.30;;;;;;5084690;27;20452;-79
2022/10/11 02:33:10;;;;;;;5.67;1.67;;;11.10;97.30;;;;;;5088116;28;20431;-83
2022/10/11 02:35:40;;;;;;;1.50;1.40;;;11.10;97.30;;;;;;5080319;28;20436;-79
2022/10/11 02:38:20;;;;;;;2.70;1.43;;;11.00;97.30;;;;;;5087842;28;20431;-82
2022/10/11 02:40:49;;;;;;;1.60;1.50;;;11.00;97.30;;;;;;5077712;28;20822;-79
2022/10/11 02:43:31;;;;;;;1.83;1.80;;;11.00;97.30;;;;;;5101204;27;20909;-82
2022/10/11 02:45:59;;;;;;;1.83;1.73;;;10.90;97.30;;;;;;5076999;28;20491;-78
2022/10/11 02:48:28;;;;;;;1.10;1.00;;;10.80;97.30;;;;;;5091153;28;20416;-81
2022/10/11 02:50:55;;;;;;;1.17;1.07;;;10.80;97.30;;;;;;5077616;28;20444;-79
2022/10/11 02:53:21;;;;;;;1.70;1.60;;;10.80;97.30;;;;;;5094792;28;20424;-82
2022/10/11 02:55:48;;;;;;;1.50;1.50;;;10.70;97.30;;;;;;5106737;28;20424;-82
2022/10/11 02:58:14;;;;;;;1.53;1.50;;;10.70;97.30;;;;;;5093203;27;20424;-83
2022/10/11 03:00:39;;;;;;;1.60;1.50;;;10.60;97.30;;;;;;5099876;28;20437;-80
2022/10/11 03:03:05;;;;;;;4.60;2.03;;;10.60;97.30;;;;;;5092570;28;20182;-83
2022/10/11 03:05:35;;;;;;;4.30;2.30;;;10.50;97.30;;;;;;5104605;27;20580;-82
2022/10/11 03:08:02;;;;;;;1.80;1.70;;;10.40;97.30;;;;;;5089827;27;20190;-82
2022/10/11 03:10:27;;;;;;;1.27;1.17;;;10.30;97.30;;;;;;5098894;28;20519;-82
2022/10/11 03:12:53;;;;;;;1.57;1.47;;;10.30;97.30;;;;;;5077357;28;20433;-82
2022/10/11 03:15:18;;;;;;;1.83;1.40;;;10.20;97.30;;;;;;5103794;28;20189;-82
2022/10/11 03:17:44;;;;;;;1.63;1.53;;;10.10;97.30;;;;;;5095229;28;20698;-82
2022/10/11 03:20:09;;;;;;;5.13;2.17;;;10.10;97.30;;;;;;5093497;27;20679;-83
2022/10/11 03:22:35;;;;;;;1.43;1.33;;;10.00;97.30;;;;;;5087831;28;20363;-82
2022/10/11 03:25:01;;;;;;;1.40;1.30;;;10.00;97.30;;;;;;5105249;27;20197;-81
2022/10/11 03:27:26;;;;;;;3.60;1.93;;;9.90;97.30;;;;;;5086528;28;20187;-83
2022/10/11 03:29:52;;;;;;;1.57;1.50;;;9.90;97.30;;;;;;5097796;28;20262;-82
2022/10/11 03:32:17;;;;;;;4.43;1.80;;;9.80;97.30;;;;;;5107967;27;20189;-82
2022/10/11 03:34:43;;;;;;;1.77;1.67;;;9.80;97.30;;;;;;5087240;28;20724;-83
2022/10/11 03:37:08;;;;;;;1.40;1.30;;;9.80;97.30;;;;;;5109854;27;20177;-83
2022/10/11 03:39:34;;;;;;;4.20;1.43;;;9.70;97.30;;;;;;5095191;28;20185;-82
2022/10/11 03:41:59;;;;;;;2.60;2.40;;;9.70;97.30;;;;;;5106748;28;20220;-79
2022/10/11 03:44:25;;;;;;;2.00;1.57;;;9.60;97.30;;;;;;5084144;28;20185;-83
2022/10/11 03:46:51;;;;;;;1.30;1.20;;;9.50;97.30;;;;;;5086974;27;20206;-79
2022/10/11 03:49:16;;;;;;;1.47;1.43;;;9.40;97.30;;;;;;5099198;28;20789;-82
2022/10/11 03:51:42;;;;;;;1.50;1.20;;;9.30;97.30;;;;;;5084481;28;20209;-80
2022/10/11 03:54:07;;;;;;;2.47;2.33;;;9.30;97.30;;;;;;5103598;27;20205;-80
2022/10/11 03:56:33;;;;;;;2.23;1.77;;;9.20;97.30;;;;;;5113397;28;20185;-83
2022/10/11 03:58:58;;;;;;;2.40;1.77;;;9.20;97.30;;;;;;5085014;28;20196;-82
2022/10/11 04:01:24;;;;;;;1.93;1.30;;;9.20;97.30;;;;;;5080455;28;20301;-82
2022/10/11 04:03:49;;;;;;;25.93;1.73;;;9.20;97.30;;;;;;5113719;28;20266;-82
2022/10/11 04:06:15;;;;;;;1.10;1.00;;;9.10;97.30;;;;;;5095577;28;20217;-82
2022/10/11 04:08:40;;;;;;;2.40;1.80;;;9.10;97.30;;;;;;5097303;28;20180;-82
2022/10/11 04:11:06;;;;;;;1.17;1.07;;;9.00;97.30;;;;;;5082143;28;20206;-79
2022/10/11 04:13:31;;;;;;;6.50;2.03;;;9.00;97.30;;;;;;5104066;28;20576;-82
2022/10/11 04:15:57;;;;;;;1.47;1.37;;;8.90;97.30;;;;;;5090545;28;20182;-84
2022/10/11 04:18:22;;;;;;;1.80;1.77;;;8.90;97.30;;;;;;5086860;28;20178;-83
2022/10/11 04:20:48;;;;;;;5.97;2.13;;;8.90;97.30;;;;;;5086897;28;20234;-83
2022/10/11 04:23:13;;;;;;;3.63;2.20;;;8.80;97.30;;;;;;5086409;28;20640;-83
2022/10/11 04:25:40;;;;;;;3.73;2.57;;;8.80;97.30;;;;;;5084620;28;20299;-83
2022/10/11 04:28:06;;;;;;;2.50;1.30;;;8.70;97.30;;;;;;5081732;28;20175;-83
2022/10/11 04:30:32;;;;;;;1.90;1.33;;;8.60;97.30;;;;;;5101376;28;20758;-83
2022/10/11 04:32:58;;;;;;;1.90;1.80;;;8.50;97.30;;;;;;5092496;28;20420;-82
2022/10/11 04:35:23;;;;;;;2.43;1.43;;;8.40;97.30;;;;;;5087341;28;20178;-82
2022/10/11 04:37:49;;;;;;;1.70;1.60;;;8.30;97.30;;;;;;5100120;27;20180;-83
2022/10/11 04:40:14;;;;;;;2.40;1.93;;;8.30;97.30;;;;;;5116641;27;20181;-82
2022/10/11 04:42:40;;;;;;;2.03;1.57;;;8.30;97.30;;;;;;5112623;27;20736;-83
2022/10/11 04:45:06;;;;;;;1.30;1.20;;;8.20;97.30;;;;;;5104470;27;20237;-82
2022/10/11 04:47:31;;;;;;;1.97;1.87;;;8.20;97.30;;;;;;5116028;27;20200;-83
2022/10/11 04:49:57;;;;;;;14.77;1.40;;;8.20;97.30;;;;;;5095341;28;20455;-80
2022/10/11 04:52:23;;;;;;;1.20;1.10;;;8.20;97.30;;;;;;5107417;28;20189;-80
2022/10/11 04:54:48;;;;;;;1.47;1.23;;;8.10;97.30;;;;;;5110032;27;20181;-79
2022/10/11 04:57:14;;;;;;;1.13;1.10;;;8.10;97.30;;;;;;5103728;27;20177;-79
2022/10/11 04:59:40;;;;;;;1.23;1.10;;;8.10;97.30;;;;;;5136020;27;20185;-83
2022/10/11 05:02:06;;;;;;;3.17;1.73;;;8.10;97.30;;;;;;5117361;27;20280;-79
2022/10/11 05:04:32;;;;;;;2.13;1.40;;;8.10;97.30;;;;;;5117855;27;20850;-82
2022/10/11 05:06:57;;;;;;;1.20;1.10;;;8.10;97.30;;;;;;5136094;27;20490;-82
2022/10/11 05:09:23;;;;;;;1.60;1.50;;;8.10;97.30;;;;;;5104140;28;20192;-82
2022/10/11 05:11:49;;;;;;;1.23;1.13;;;8.10;97.30;;;;;;5116613;27;20192;-83
2022/10/11 05:14:14;;;;;;;2.60;2.40;;;8.00;97.30;;;;;;5122414;27;20182;-82
2022/10/11 05:16:40;;;;;;;13.73;2.90;;;8.00;97.30;;;;;;5110131;28;20193;-82
2022/10/11 05:19:05;;;;;;;1.53;1.53;;;8.00;97.30;;;;;;5090520;28;20660;-83
2022/10/11 05:21:31;;;;;;;2.40;1.87;;;7.90;97.30;;;;;;5108430;28;20225;-82
2022/10/11 05:23:57;;;;;;;3.23;3.03;;;8.00;97.30;;;;;;5083458;28;20533;-82
2022/10/11 05:26:26;;;;;;;2.23;2.10;;;8.00;97.30;;;;;;5098362;28;20205;-82
2022/10/11 05:28:52;;;;;;;2.40;2.30;;;7.90;97.30;;;;;;5097388;27;20945;-82
2022/10/11 05:31:18;;;;;;;1.90;1.80;;;7.90;97.30;;;;;;5104144;27;20438;-83
2022/10/11 05:33:44;;;;;;;1.40;1.30;;;7.90;97.30;;;;;;5102986;28;20455;-83
2022/10/11 05:36:10;;;;;;;2.33;2.13;;;7.90;97.30;;;;;;5122570;27;20905;-82
2022/10/11 05:38:37;;;;;;;1.70;1.60;;;7.90;97.30;;;;;;5116636;27;20231;-83
2022/10/11 05:41:03;;;;;;;3.70;3.00;;;7.90;97.30;;;;;;5127602;27;20504;-83
2022/10/11 05:43:30;;;;;;;2.07;1.93;;;7.90;97.30;;;;;;5097979;28;20420;-83
2022/10/11 05:45:56;;;;;;;1.50;1.43;;;7.90;97.30;;;;;;5085555;28;20490;-83
2022/10/11 05:48:22;;;;;;;1.70;1.60;;;7.90;97.30;;;;;;5116235;27;20418;-79
2022/10/11 05:50:49;;;;;;;1.40;1.30;;;7.90;97.30;;;;;;5102187;27;20427;-79
2022/10/11 05:53:15;;;;;;;5.63;1.57;;;7.90;97.30;;;;;;5120616;27;20825;-82
2022/10/11 05:55:42;;;;;;;4.40;2.63;;;7.90;97.30;;;;;;5101969;28;20503;-80
2022/10/11 05:58:12;;;;;;;4.00;1.37;;;8.00;97.30;;;;;;5091711;27;20510;-81
2022/10/11 06:00:38;;;;;;;2.33;2.00;;;7.90;97.30;;;;;;5108944;28;20431;-83
2022/10/11 06:03:09;;;;;;;1.80;1.70;;;7.90;97.30;;;;;;5110723;27;20433;-80
2022/10/11 06:05:34;;;;;;;2.70;2.30;;;7.90;97.30;;;;;;5096855;28;20475;-79
2022/10/11 06:08:01;;;;;;;1.30;1.20;;;7.80;97.30;;;;;;5112749;27;20909;-80
2022/10/11 06:10:27;;;;;;;2.90;1.73;;;7.80;97.30;;;;;;5107598;28;20617;-82
2022/10/11 06:12:52;;;;;;;1.93;1.70;;;7.70;97.30;;;;;;5094830;28;20458;-82
2022/10/11 06:15:18;;;;;;;1.87;1.47;;;7.70;97.30;;;;;;5083799;28;20455;-81
2022/10/11 06:17:45;;;;;;;1.10;1.00;;;7.70;97.30;;;;;;5106512;27;20410;-79
2022/10/11 06:20:11;;;;;;;2.90;2.70;;;7.70;97.30;;;;;;5117146;27;20214;-79
2022/10/11 06:22:37;;;;;;;1.67;1.57;;;7.80;97.30;;;;;;5111777;27;20515;-82
2022/10/11 06:25:02;;;;;;;4.27;1.97;;;7.80;97.30;;;;;;5081090;28;20821;-82
2022/10/11 06:27:28;;;;;;;1.20;1.10;;;7.80;97.30;;;;;;5078593;28;20671;-82
2022/10/11 06:29:56;;;;;;;6.40;3.63;;;7.90;97.30;;;;;;5096107;28;20182;-79
2022/10/11 06:32:21;;;;;;;3.17;2.97;;;7.90;97.30;;;;;;5106158;28;20266;-82
2022/10/11 06:34:47;;;;;;;1.70;1.60;;;8.00;97.30;;;;;;5102878;27;20873;-82
2022/10/11 06:37:12;;;;;;;2.93;2.80;;;8.00;97.30;;;;;;5102153;28;20178;-80
2022/10/11 06:39:38;;;;;;;2.33;1.60;;;8.10;97.30;;;;;;5101503;28;20190;-83
2022/10/11 06:42:03;;;;;;;3.27;2.77;;;8.20;97.30;;;;;;5090067;27;20209;-79
2022/10/11 06:44:29;;;;;;;1.50;1.40;;;8.30;97.30;;;;;;5093874;28;20559;-79
2022/10/11 06:46:55;;;;;;;20.53;2.30;;;8.40;97.30;;;;;;5121305;27;20194;-81
2022/10/11 06:49:20;;;;;;;10.70;2.60;;;8.50;97.30;;;;;;5077170;28;20269;-81
2022/10/11 06:51:46;;;;;;;1.50;1.40;;;8.60;97.30;;;;;;5079770;27;20707;-81
2022/10/11 06:54:11;;;;;;;2.83;2.63;;;8.70;97.30;;;;;;5092538;28;20669;-80
2022/10/11 06:56:37;;;;;;;4.33;2.70;;;8.80;97.30;;;;;;5082975;27;20182;-80
2022/10/11 06:59:03;;;;;;;18.87;3.60;;;8.90;97.30;;;;;;5097400;28;20222;-81
2022/10/11 07:01:29;;;;;;;2.13;1.67;;;9.00;97.30;;;;;;5080843;28;20815;-79
2022/10/11 07:03:56;;;;;;;2.90;2.30;;;9.10;97.30;;;;;;5080320;28;20190;-82
2022/10/11 07:06:25;;;;;;;3.33;2.10;;;9.10;97.30;;;;;;5098986;28;20217;-81
2022/10/11 07:08:51;;;;;;;2.20;1.70;;;9.20;97.30;;;;;;5096245;27;20483;-78
2022/10/11 07:11:20;;;;;;;2.83;2.13;;;9.30;97.30;;;;;;5088951;27;20456;-81
2022/10/11 07:13:54;;;;;;;5.87;2.80;;;9.40;97.30;;;;;;5100644;28;20413;-81
2022/10/11 07:16:20;;;;;;;2.00;1.93;;;9.50;97.30;;;;;;5102854;28;20510;-82
2022/10/11 07:18:47;;;;;;;7.90;1.90;;;9.60;97.30;;;;;;5079523;28;20420;-78
2022/10/11 07:21:14;;;;;;;1.67;1.53;;;9.70;97.30;;;;;;5081736;27;20491;-78
2022/10/11 07:23:41;;;;;;;1.90;1.77;;;9.80;97.30;;;;;;5111899;27;20514;-82
2022/10/11 07:26:08;;;;;;;1.60;1.50;;;9.90;97.30;;;;;;5095953;28;20846;-81
2022/10/11 07:28:34;;;;;;;3.20;1.57;;;9.90;97.30;;;;;;5076922;28;20451;-81
2022/10/11 07:31:21;;;;;;;2.17;2.00;;;10.00;97.30;;;;;;5100753;27;20438;-81
2022/10/11 07:33:46;;;;;;;4.40;1.47;;;10.10;97.30;;;;;;5110208;27;20785;-79
2022/10/11 07:36:13;;;;;;;8.43;2.00;;;10.20;97.30;;;;;;5079503;28;20439;-78
2022/10/11 07:38:42;;;;;;;1.60;1.50;;;10.30;97.30;;;;;;5077656;28;20186;-82
2022/10/11 07:41:09;;;;;;;2.73;2.53;;;10.40;97.30;;;;;;5094029;28;20443;-81
2022/10/11 07:43:35;;;;;;;11.37;2.50;;;10.40;97.30;;;;;;5090189;28;21017;-79
2022/10/11 07:46:02;;;;;;;4.60;1.80;;;10.50;97.30;;;;;;5092333;28;20468;-82
2022/10/11 07:48:30;;;;;;;1.40;1.30;;;10.60;97.30;;;;;;5083741;28;20427;-79
2022/10/11 07:51:07;;;;;;;4.90;2.53;;;10.70;97.30;;;;;;5077125;28;20448;-81
2022/10/11 07:53:46;;;;;;;2.50;1.70;;;10.80;97.30;;;;;;5095947;27;20422;-82
2022/10/11 07:56:16;;;;;;;2.40;2.20;;;10.90;97.30;;;;;;5098129;28;20420;-78
2022/10/11 07:58:42;;;;;;;1.40;1.30;;;11.00;97.30;;;;;;5107201;28;20415;-79
2022/10/11 08:01:09;;;;;;;1.83;1.73;;;11.10;97.30;;;;;;5102894;28;20480;-78
2022/10/11 08:03:35;;;;;;;1.10;1.00;;;11.20;97.30;;;;;;5107731;28;20205;-80
2022/10/11 08:06:05;;;;;;;1.67;1.67;;;11.20;97.30;;;;;;5110151;28;20462;-80
2022/10/11 08:08:31;;;;;;;2.13;1.97;;;11.30;97.30;;;;;;5110193;28;20415;-81
2022/10/11 08:10:58;;;;;;;1.13;1.03;;;11.40;97.30;;;;;;5100785;28;20483;-79
2022/10/11 08:13:24;;;;;;;3.90;1.77;;;11.50;97.30;;;;;;5100440;28;20173;-81
2022/10/11 08:15:50;;;;;;;1.03;1.00;;;11.60;97.30;;;;;;5107185;28;20452;-78
2022/10/11 08:18:16;;;;;;;1.83;1.73;;;11.60;97.30;;;;;;5124764;28;20476;-78
2022/10/11 08:20:41;;;;;;;0.93;0.83;;;11.70;97.30;;;;;;5124330;28;20487;-80
2022/10/11 08:23:08;;;;;;;1.73;1.63;;;11.80;97.30;;;;;;5101671;28;20932;-81
2022/10/11 08:25:38;;;;;;;6.30;1.50;;;11.90;97.30;;;;;;5096065;28;20205;-81
2022/10/11 08:28:05;;;;;;;9.73;2.40;;;12.00;97.30;;;;;;5096424;28;20419;-81
2022/10/11 08:30:30;;;;;;;2.37;1.43;;;12.10;97.30;;;;;;5113850;28;20430;-81
2022/10/11 08:32:56;;;;;;;23.17;4.60;;;12.10;97.30;;;;;;5092861;28;20410;-77
2022/10/11 08:35:21;;;;;;;6.00;1.37;;;12.20;97.30;;;;;;5105510;28;20178;-81
2022/10/11 08:37:47;;;;;;;1.77;1.70;;;12.30;97.30;;;;;;5100424;28;20656;-78
2022/10/11 08:40:16;;;;;;;1.60;1.50;;;12.30;97.30;;;;;;5099189;28;20184;-79
2022/10/11 08:42:59;;;;;;;1.80;1.20;;;12.40;97.30;;;;;;5104584;28;20182;-79
2022/10/11 08:45:31;;;;;;;1.10;1.00;;;12.40;97.30;;;;;;5104476;28;20976;-80
2022/10/11 08:48:07;;;;;;;3.07;1.57;;;12.50;97.30;;;;;;5122107;28;20418;-81
2022/10/11 08:50:33;;;;;;;12.03;4.87;;;12.60;97.30;;;;;;5118935;28;20513;-82
2022/10/11 08:53:04;;;;;;;1.63;1.53;;;12.70;97.30;;;;;;5111996;28;20418;-78
2022/10/11 08:55:42;;;;;;;2.27;2.07;;;12.70;97.30;;;;;;5107517;28;20412;-82
2022/10/11 08:58:15;;;;;;;1.10;1.00;;;12.80;97.30;;;;;;5098968;28;20420;-78
2022/10/11 09:00:42;;;;;;;1.57;1.50;;;12.80;97.30;;;;;;5105687;27;20498;-82
2022/10/11 09:03:26;;;;;;;2.60;1.67;;;12.90;97.30;;;;;;5116558;27;20410;-82
2022/10/11 09:06:16;;;;;;;1.23;1.13;;;12.90;97.30;;;;;;5117034;27;20464;-80
2022/10/11 09:09:00;;;;;;;1.97;1.10;;;13.00;97.30;;;;;;5110144;28;20416;-79
2022/10/11 09:12:02;;;;;;;1.23;1.13;;;13.10;97.30;;;;;;5129800;27;20431;-81
2022/10/11 09:14:40;;;;;;;1.67;1.57;;;13.10;97.30;;;;;;5100520;27;20423;-82
2022/10/11 09:17:12;;;;;;;1.40;1.30;;;13.20;97.30;;;;;;5129567;27;20438;-81
2022/10/11 09:20:07;;;;;;;5.07;1.53;;;13.30;97.30;;;;;;5121190;27;20842;-78
2022/10/11 09:22:54;;;;;;;1.33;1.20;;;13.40;97.30;;;;;;5113640;27;20543;-82
2022/10/11 09:25:25;;;;;;;1.40;1.30;;;13.50;97.30;;;;;;5108332;27;20450;-81
2022/10/11 09:28:06;;;;;;;6.03;2.70;;;13.50;97.30;;;;;;5134348;27;20601;-81
2022/10/11 09:30:32;;;;;;;1.03;0.93;;;13.50;97.30;;;;;;5132894;27;20798;-81
2022/10/11 09:33:07;;;;;;;2.03;1.93;;;13.50;97.30;;;;;;5123076;27;20493;-77
2022/10/11 09:35:39;;;;;;;3.43;1.97;;;13.40;97.30;;;;;;5134437;27;20416;-81
2022/10/11 09:38:17;;;;;;;0.90;0.80;;;13.50;97.30;;;;;;5107167;28;20956;-82
2022/10/11 09:41:01;;;;;;;1.53;1.43;;;13.60;97.30;;;;;;5129295;27;20443;-82
2022/10/11 09:43:27;;;;;;;1.10;1.00;;;13.50;97.30;;;;;;5103654;27;20416;-82
2022/10/11 09:45:52;;;;;;;1.53;1.20;;;13.50;97.30;;;;;;5124064;27;20500;-81
2022/10/11 09:48:40;;;;;;;1.63;1.30;;;13.40;97.30;;;;;;5113637;27;20212;-81
2022/10/11 09:51:13;;;;;;;1.43;1.40;;;13.40;97.30;;;;;;5106904;27;20272;-78
2022/10/11 09:53:59;;;;;;;2.30;2.03;;;13.40;97.30;;;;;;5126842;27;20422;-81
2022/10/11 09:56:29;;;;;;;4.30;2.50;;;13.30;97.30;;;;;;5083435;28;20416;-81
2022/10/11 09:59:23;;;;;;;0.90;0.87;;;13.40;97.30;;;;;;5109549;27;20419;-78
2022/10/11 10:02:04;;;;;;;1.23;1.13;;;13.50;97.30;;;;;;5098692;28;20454;-77
2022/10/11 10:04:29;;;;;;;3.07;1.83;;;13.70;97.30;;;;;;5115107;27;20789;-81
2022/10/11 10:07:09;;;;;;;4.10;1.80;;;13.80;97.30;;;;;;5097032;28;20462;-81
2022/10/11 10:09:35;;;;;;;1.10;1.00;;;13.90;97.30;;;;;;5130166;27;20184;-81
2022/10/11 10:12:10;;;;;;;4.40;1.87;;;13.90;97.00;;;;;;5114725;27;20438;-81
2022/10/11 10:14:36;;;;;;;1.13;1.03;;;13.80;97.00;;;;;;5135041;27;20165;-81
2022/10/11 10:17:14;;;;;;;1.10;1.00;;;13.80;96.90;;;;;;5110506;27;20415;-81
2022/10/11 10:19:47;;;;;;;1.93;1.53;;;13.90;96.50;;;;;;5097996;28;20454;-82
2022/10/11 10:22:26;;;;;;;3.80;1.50;;;14.10;96.00;;;;;;5092101;28;21010;-82
2022/10/11 10:24:53;;;;;;;1.30;1.20;;;14.20;93.40;;;;;;5088070;28;20835;-78
2022/10/11 10:27:26;;;;;;;5.30;1.50;;;14.30;93.00;;;;;;5100277;28;20937;-81
2022/10/11 10:30:01;;;;;;;2.83;1.70;;;14.30;93.00;;;;;;5112193;28;20458;-82
2022/10/11 10:32:47;;;;;;;8.67;1.10;;;14.20;93.30;;;;;;5097823;28;20459;-82
2022/10/11 10:35:27;;;;;;;1.70;1.60;;;14.40;93.90;;;;;;5105587;28;20424;-83
2022/10/11 10:38:14;;;;;;;0.90;0.90;;;14.50;93.70;;;;;;5112836;28;20407;-82
2022/10/11 10:40:46;;;;;;;3.17;1.40;;;14.80;93.50;;;;;;5100547;28;20435;-83
2022/10/11 10:43:15;;;;;;;2.30;1.87;;;15.00;92.60;;;;;;5101576;28;20495;-82
2022/10/11 10:45:55;;;;;;;2.20;1.47;;;15.10;92.00;;;;;;5099443;28;20451;-80
2022/10/11 10:48:42;;;;;;;2.80;1.87;;;15.00;91.90;;;;;;5100335;28;20404;-84
2022/10/11 10:51:46;;;;;;;3.33;1.90;;;14.90;91.90;;;;;;5102485;28;20440;-82
2022/10/11 10:54:36;;;;;;;1.20;1.10;;;15.10;91.60;;;;;;5080419;28;20415;-82
2022/10/11 10:57:09;;;;;;;17.70;1.80;;;15.10;90.60;;;;;;5084227;28;20938;-83
2022/10/11 10:59:53;;;;;;;1.10;1.00;;;15.10;90.50;;;;;;5112422;28;20507;-81
2022/10/11 11:02:33;;;;;;;1.53;0.90;;;15.00;90.50;;;;;;5081311;28;20448;-83
2022/10/11 11:05:22;;;;;;;2.30;2.17;;;14.90;90.30;;;;;;5097002;28;20422;-81
2022/10/11 11:08:37;;;;;;;1.03;0.93;;;15.00;91.60;;;;;;5112578;28;20419;-83
2022/10/11 11:11:27;;;;;;;4.77;1.80;;;15.30;91.50;;;;;;5086031;28;20440;-82
2022/10/11 11:14:06;;;;;;;1.73;1.63;;;15.60;89.60;;;;;;5102447;28;20419;-82
2022/10/11 11:16:36;;;;;;;1.63;1.53;;;15.70;89.10;;;;;;5100970;28;20409;-83
2022/10/11 11:19:26;;;;;;;1.93;1.83;;;15.80;88.40;;;;;;5106066;28;20822;-80
2022/10/11 11:22:11;;;;;;;1.20;1.10;;;15.90;88.90;;;;;;5089459;28;20486;-78
2022/10/11 11:24:49;;;;;;;1.73;1.20;;;15.90;88.50;;;;;;5098429;28;20903;-80
2022/10/11 11:27:39;;;;;;;3.67;2.60;;;15.80;87.80;;;;;;5111170;28;20487;-83
2022/10/11 11:30:20;;;;;;;6.53;1.37;;;15.70;88.00;;;;;;5073556;28;20479;-82
2022/10/11 11:33:17;;;;;;;4.07;1.43;;;15.60;88.20;;;;;;5111893;28;20412;-80
2022/10/11 11:35:51;;;;;;;5.03;1.97;;;15.50;87.20;;;;;;5096917;28;20417;-83
2022/10/11 11:38:54;;;;;;;2.83;2.07;;;15.60;88.30;;;;;;5091293;28;20433;-82
2022/10/11 11:41:27;;;;;;;2.00;1.93;;;15.80;87.70;;;;;;5090647;28;20841;-77
2022/10/11 11:43:59;;;;;;;2.87;1.73;;;15.90;87.50;;;;;;5104220;28;20441;-80
2022/10/11 11:46:33;;;;;;;1.30;1.20;;;16.00;87.90;;;;;;5083973;28;20543;-80
2022/10/11 11:49:05;;;;;;;1.50;1.23;;;16.30;87.00;;;;;;5096826;28;20423;-82
2022/10/11 11:51:44;;;;;;;14.70;2.00;;;16.50;86.90;;;;;;5098435;28;20435;-83
2022/10/11 11:54:18;;;;;;;1.20;1.10;;;16.70;85.80;;;;;;5079331;28;20420;-80
2022/10/11 11:57:32;;;;;;;1.00;0.90;;;16.70;85.70;;;;;;5092062;28;20527;-79
2022/10/11 12:00:15;;;;;;;1.03;0.97;;;16.50;85.00;;;;;;5093666;28;21051;-82
2022/10/11 12:02:47;;;;;;;1.20;1.10;;;16.00;84.90;;;;;;5111589;28;20796;-80
2022/10/11 12:05:17;;;;;;;3.53;1.67;;;15.70;85.20;;;;;;5110955;28;20488;-80
2022/10/11 12:07:57;;;;;;;1.00;0.90;;;15.50;85.50;;;;;;5097953;28;20431;-82
2022/10/11 12:10:52;;;;;;;1.07;0.97;;;15.30;85.60;;;;;;5088825;28;20443;-82
2022/10/11 12:13:35;;;;;;;1.77;1.40;;;15.30;85.50;;;;;;5098637;28;20752;-82
2022/10/11 12:16:10;;;;;;;1.63;1.53;;;15.70;85.50;;;;;;5090121;28;20528;-83
2022/10/11 12:18:52;;;;;;;1.80;1.23;;;16.10;84.80;;;;;;5100636;28;20426;-79
2022/10/11 12:21:30;;;;;;;1.00;0.90;;;16.60;81.80;;;;;;5088141;28;20524;-77
2022/10/11 12:24:03;;;;;;;0.90;0.80;;;17.00;82.50;;;;;;5099080;28;20419;-81
2022/10/11 12:26:41;;;;;;;5.03;1.93;;;17.50;81.30;;;;;;5080471;28;21037;-77
2022/10/11 12:29:19;;;;;;;1.20;1.10;;;17.90;79.50;;;;;;5103537;28;20416;-79
2022/10/11 12:31:48;;;;;;;1.10;1.00;;;18.30;79.30;;;;;;5091364;28;20432;-82
2022/10/11 12:34:32;;;;;;;1.00;0.90;;;18.50;78.50;;;;;;5091647;28;20566;-79
2022/10/11 12:36:58;;;;;;;1.93;1.10;;;18.50;78.10;;;;;;5096540;28;20455;-82
2022/10/11 12:39:24;;;;;;;3.73;1.87;;;18.60;78.10;;;;;;5089843;28;20435;-81
2022/10/11 12:42:04;;;;;;;4.40;1.63;;;18.80;77.40;;;;;;5081699;28;20449;-81
2022/10/11 12:44:29;;;;;;;1.67;1.57;;;19.00;77.80;;;;;;5085526;28;20563;-82
2022/10/11 12:46:56;;;;;;;1.20;1.10;;;19.20;77.50;;;;;;5095132;28;20472;-83
2022/10/11 12:49:25;;;;;;;1.10;1.00;;;19.20;75.00;;;;;;5085741;28;20195;-82
2022/10/11 12:51:51;;;;;;;1.10;1.00;;;19.40;75.30;;;;;;5089594;28;20965;-78
2022/10/11 12:54:55;;;;;;;1.50;1.40;;;19.40;74.30;;;;;;5079474;28;20519;-78
2022/10/11 12:58:00;;;;;;;12.70;1.50;;;19.50;74.20;;;;;;5065552;28;20191;-78
2022/10/11 13:00:30;;;;;;;0.90;0.80;;;19.50;74.20;;;;;;5081021;28;20425;-82
2022/10/11 13:03:01;;;;;;;1.90;1.20;;;19.60;74.40;;;;;;5079123;28;20476;-85
2022/10/11 13:05:43;;;;;;;1.87;1.10;;;19.70;74.60;;;;;;5085111;28;20448;-81
2022/10/11 13:08:16;;;;;;;1.10;1.00;;;19.70;74.80;;;;;;5083395;28;20409;-82
2022/10/11 13:10:45;;;;;;;1.50;1.23;;;19.60;74.20;;;;;;5081230;28;20438;-78
2022/10/11 13:13:21;;;;;;;1.33;1.07;;;19.60;74.50;;;;;;5091864;28;20415;-83
2022/10/11 13:15:47;;;;;;;1.23;0.93;;;19.60;74.10;;;;;;5077977;28;20477;-79